sensor_id;sensor_type;location;lat;lon;timestamp;temperature;humidity
4187;DHT22;2107;52.306;10.484;2024-01-07T00:01:01;-0.70;99.90
4187;DHT22;2107;52.306;10.484;2024-01-07T00:03:28;-0.70;99.90
4187;DHT22;2107;52.306;10.484;2024-01-07T00:05:57;-0.70;99.90
4187;DHT22;2107;52.306;10.484;2024-01-07T00:08:24;-0.70;99.90
4187;DHT22;2107;52.306;10.484;2024-01-07T00:10:51;-0.80;99.90
4187;DHT22;2107;52.306;10.484;2024-01-07T00:13:18;-0.80;99.90
4187;DHT22;2107;52.306;10.484;2024-01-07T00:15:45;-0.80;99.90
4187;DHT22;2107;52.306;10.484;2024-01-07T00:18:12;-0.80;99.90
4187;DHT22;2107;52.306;10.484;2024-01-07T00:20:38;-0.80;99.90
4187;DHT22;2107;52.306;10.484;2024-01-07T00:23:07;-0.90;99.90
4187;DHT22;2107;52.306;10.484;2024-01-07T00:25:34;-0.80;99.90
4187;DHT22;2107;52.306;10.484;2024-01-07T00:28:03;-0.70;99.90
4187;DHT22;2107;52.306;10.484;2024-01-07T00:30:30;-0.80;99.90
4187;DHT22;2107;52.306;10.484;2024-01-07T00:32:57;-0.80;99.90
4187;DHT22;2107;52.306;10.484;2024-01-07T00:35:24;-0.80;99.90
4187;DHT22;2107;52.306;10.484;2024-01-07T00:37:51;-0.80;99.90
4187;DHT22;2107;52.306;10.484;2024-01-07T00:40:19;-0.90;99.90
4187;DHT22;2107;52.306;10.484;2024-01-07T00:42:46;-0.90;99.90
4187;DHT22;2107;52.306;10.484;2024-01-07T00:45:13;-1.00;99.90
4187;DHT22;2107;52.306;10.484;2024-01-07T00:47:41;-1.00;99.90
4187;DHT22;2107;52.306;10.484;2024-01-07T00:50:08;-1.00;99.90
4187;DHT22;2107;52.306;10.484;2024-01-07T00:52:35;-1.00;99.90
4187;DHT22;2107;52.306;10.484;2024-01-07T00:55:03;-1.00;99.90
4187;DHT22;2107;52.306;10.484;2024-01-07T00:57:33;-1.00;99.90
4187;DHT22;2107;52.306;10.484;2024-01-07T01:00:00;-1.00;99.90
4187;DHT22;2107;52.306;10.484;2024-01-07T01:02:27;-1.10;99.90
4187;DHT22;2107;52.306;10.484;2024-01-07T01:04:55;-1.10;99.90
4187;DHT22;2107;52.306;10.484;2024-01-07T01:07:27;-1.10;99.90
4187;DHT22;2107;52.306;10.484;2024-01-07T01:09:56;-1.20;99.90
4187;DHT22;2107;52.306;10.484;2024-01-07T01:12:26;-1.20;99.90
4187;DHT22;2107;52.306;10.484;2024-01-07T01:14:55;-1.20;99.90
4187;DHT22;2107;52.306;10.484;2024-01-07T01:17:23;-1.20;99.90
4187;DHT22;2107;52.306;10.484;2024-01-07T01:19:50;-1.20;99.90
4187;DHT22;2107;52.306;10.484;2024-01-07T01:22:17;-1.20;99.90
4187;DHT22;2107;52.306;10.484;2024-01-07T01:24:44;-1.20;99.90
4187;DHT22;2107;52.306;10.484;2024-01-07T01:27:11;-1.20;99.90
4187;DHT22;2107;52.306;10.484;2024-01-07T01:29:38;-1.20;99.90
4187;DHT22;2107;52.306;10.484;2024-01-07T01:32:07;-1.30;99.90
4187;DHT22;2107;52.306;10.484;2024-01-07T01:34:34;-1.30;99.90
4187;DHT22;2107;52.306;10.484;2024-01-07T01:37:01;-1.30;99.90
4187;DHT22;2107;52.306;10.484;2024-01-07T01:39:28;-1.30;99.90
4187;DHT22;2107;52.306;10.484;2024-01-07T01:41:55;-1.30;99.90
4187;DHT22;2107;52.306;10.484;2024-01-07T01:44:23;-1.30;99.90
4187;DHT22;2107;52.306;10.484;2024-01-07T01:46:52;-1.20;99.90
4187;DHT22;2107;52.306;10.484;2024-01-07T01:49:21;-1.30;99.90
4187;DHT22;2107;52.306;10.484;2024-01-07T01:51:48;-1.40;99.90
4187;DHT22;2107;52.306;10.484;2024-01-07T01:54:15;-1.40;99.90
4187;DHT22;2107;52.306;10.484;2024-01-07T01:56:43;-1.40;99.90
4187;DHT22;2107;52.306;10.484;2024-01-07T01:59:11;-1.40;99.90
4187;DHT22;2107;52.306;10.484;2024-01-07T02:01:39;-1.40;99.90
4187;DHT22;2107;52.306;10.484;2024-01-07T02:04:06;-1.40;99.90
4187;DHT22;2107;52.306;10.484;2024-01-07T02:06:34;-1.30;99.90
4187;DHT22;2107;52.306;10.484;2024-01-07T02:09:01;-1.40;99.90
4187;DHT22;2107;52.306;10.484;2024-01-07T02:11:29;-1.30;99.90
4187;DHT22;2107;52.306;10.484;2024-01-07T02:13:56;-1.30;99.90
4187;DHT22;2107;52.306;10.484;2024-01-07T02:16:23;-1.40;99.90
4187;DHT22;2107;52.306;10.484;2024-01-07T02:18:50;-1.30;99.90
4187;DHT22;2107;52.306;10.484;2024-01-07T02:21:17;-1.40;99.90
4187;DHT22;2107;52.306;10.484;2024-01-07T02:23:45;-1.40;99.90
4187;DHT22;2107;52.306;10.484;2024-01-07T02:26:13;-1.40;99.90
4187;DHT22;2107;52.306;10.484;2024-01-07T02:28:40;-1.50;99.90
4187;DHT22;2107;52.306;10.484;2024-01-07T02:31:07;-1.50;99.90
4187;DHT22;2107;52.306;10.484;2024-01-07T02:33:34;-1.50;99.90
4187;DHT22;2107;52.306;10.484;2024-01-07T02:36:01;-1.50;99.90
4187;DHT22;2107;52.306;10.484;2024-01-07T02:38:28;-1.50;99.90
4187;DHT22;2107;52.306;10.484;2024-01-07T02:40:54;-1.50;99.90
4187;DHT22;2107;52.306;10.484;2024-01-07T02:43:23;-1.60;99.90
4187;DHT22;2107;52.306;10.484;2024-01-07T02:45:50;-1.60;99.90
4187;DHT22;2107;52.306;10.484;2024-01-07T02:48:17;-1.60;99.90
4187;DHT22;2107;52.306;10.484;2024-01-07T02:50:44;-1.60;99.90
4187;DHT22;2107;52.306;10.484;2024-01-07T02:53:11;-1.60;99.90
4187;DHT22;2107;52.306;10.484;2024-01-07T02:55:38;-1.60;99.90
4187;DHT22;2107;52.306;10.484;2024-01-07T02:58:05;-1.60;99.90
4187;DHT22;2107;52.306;10.484;2024-01-07T03:00:33;-1.60;99.90
4187;DHT22;2107;52.306;10.484;2024-01-07T03:03:00;-1.70;99.90
4187;DHT22;2107;52.306;10.484;2024-01-07T03:05:27;-1.70;99.90
4187;DHT22;2107;52.306;10.484;2024-01-07T03:07:58;-1.70;99.90
4187;DHT22;2107;52.306;10.484;2024-01-07T03:10:24;-1.70;99.90
4187;DHT22;2107;52.306;10.484;2024-01-07T03:12:51;-1.70;99.90
4187;DHT22;2107;52.306;10.484;2024-01-07T03:15:18;-1.70;99.90
4187;DHT22;2107;52.306;10.484;2024-01-07T03:17:46;-1.80;99.90
4187;DHT22;2107;52.306;10.484;2024-01-07T03:20:13;-1.80;99.90
4187;DHT22;2107;52.306;10.484;2024-01-07T03:22:40;-1.80;99.90
4187;DHT22;2107;52.306;10.484;2024-01-07T03:25:08;-1.70;99.90
4187;DHT22;2107;52.306;10.484;2024-01-07T03:27:34;-1.70;99.90
4187;DHT22;2107;52.306;10.484;2024-01-07T03:30:02;-1.70;99.90
4187;DHT22;2107;52.306;10.484;2024-01-07T03:32:29;-1.70;99.90
4187;DHT22;2107;52.306;10.484;2024-01-07T03:34:57;-1.60;99.90
4187;DHT22;2107;52.306;10.484;2024-01-07T03:37:24;-1.70;99.90
4187;DHT22;2107;52.306;10.484;2024-01-07T03:39:51;-1.70;99.90
4187;DHT22;2107;52.306;10.484;2024-01-07T03:42:17;-1.70;99.90
4187;DHT22;2107;52.306;10.484;2024-01-07T03:44:45;-1.70;99.90
4187;DHT22;2107;52.306;10.484;2024-01-07T03:47:12;-1.70;99.90
4187;DHT22;2107;52.306;10.484;2024-01-07T03:49:38;-1.70;99.90
4187;DHT22;2107;52.306;10.484;2024-01-07T03:52:07;-1.70;99.90
4187;DHT22;2107;52.306;10.484;2024-01-07T03:54:34;-1.70;99.90
4187;DHT22;2107;52.306;10.484;2024-01-07T03:57:01;-1.70;99.90
4187;DHT22;2107;52.306;10.484;2024-01-07T03:59:28;-1.70;99.90
4187;DHT22;2107;52.306;10.484;2024-01-07T04:01:56;-1.70;99.90
4187;DHT22;2107;52.306;10.484;2024-01-07T04:04:24;-1.70;99.90
4187;DHT22;2107;52.306;10.484;2024-01-07T04:06:50;-1.60;99.90
4187;DHT22;2107;52.306;10.484;2024-01-07T04:09:19;-1.70;99.90
4187;DHT22;2107;52.306;10.484;2024-01-07T04:11:46;-1.70;99.90
4187;DHT22;2107;52.306;10.484;2024-01-07T04:14:15;-1.50;99.90
4187;DHT22;2107;52.306;10.484;2024-01-07T04:16:42;-1.70;99.90
4187;DHT22;2107;52.306;10.484;2024-01-07T04:19:09;-1.70;99.90
4187;DHT22;2107;52.306;10.484;2024-01-07T04:21:36;-1.70;99.90
4187;DHT22;2107;52.306;10.484;2024-01-07T04:24:03;-1.70;99.90
4187;DHT22;2107;52.306;10.484;2024-01-07T04:26:31;-1.70;99.90
4187;DHT22;2107;52.306;10.484;2024-01-07T04:28:58;-1.70;99.90
4187;DHT22;2107;52.306;10.484;2024-01-07T04:31:25;-1.70;99.90
4187;DHT22;2107;52.306;10.484;2024-01-07T04:33:52;-1.70;99.90
4187;DHT22;2107;52.306;10.484;2024-01-07T04:36:19;-1.70;99.90
4187;DHT22;2107;52.306;10.484;2024-01-07T04:38:46;-1.70;99.90
4187;DHT22;2107;52.306;10.484;2024-01-07T04:41:12;-1.70;99.90
4187;DHT22;2107;52.306;10.484;2024-01-07T04:43:42;-1.70;99.90
4187;DHT22;2107;52.306;10.484;2024-01-07T04:46:10;-1.70;99.90
4187;DHT22;2107;52.306;10.484;2024-01-07T04:48:37;-1.80;99.90
4187;DHT22;2107;52.306;10.484;2024-01-07T04:51:04;-1.80;99.90
4187;DHT22;2107;52.306;10.484;2024-01-07T04:53:31;-1.80;99.90
4187;DHT22;2107;52.306;10.484;2024-01-07T04:55:58;-1.90;99.90
4187;DHT22;2107;52.306;10.484;2024-01-07T04:58:25;-1.90;99.90
4187;DHT22;2107;52.306;10.484;2024-01-07T05:00:53;-1.90;99.90
4187;DHT22;2107;52.306;10.484;2024-01-07T05:03:20;-1.90;99.90
4187;DHT22;2107;52.306;10.484;2024-01-07T05:05:47;-1.90;99.90
4187;DHT22;2107;52.306;10.484;2024-01-07T05:08:14;-1.90;99.90
4187;DHT22;2107;52.306;10.484;2024-01-07T05:10:40;-2.00;99.90
4187;DHT22;2107;52.306;10.484;2024-01-07T05:13:07;-2.00;99.90
4187;DHT22;2107;52.306;10.484;2024-01-07T05:15:35;-2.00;99.90
4187;DHT22;2107;52.306;10.484;2024-01-07T05:18:07;-2.10;99.90
4187;DHT22;2107;52.306;10.484;2024-01-07T05:20:34;-2.10;99.90
4187;DHT22;2107;52.306;10.484;2024-01-07T05:23:01;-2.20;99.90
4187;DHT22;2107;52.306;10.484;2024-01-07T05:25:27;-2.30;99.90
4187;DHT22;2107;52.306;10.484;2024-01-07T05:27:54;-2.30;99.90
4187;DHT22;2107;52.306;10.484;2024-01-07T05:30:22;-2.30;99.90
4187;DHT22;2107;52.306;10.484;2024-01-07T05:32:48;-2.30;99.90
4187;DHT22;2107;52.306;10.484;2024-01-07T05:35:17;-2.30;99.90
4187;DHT22;2107;52.306;10.484;2024-01-07T05:37:44;-2.30;99.90
4187;DHT22;2107;52.306;10.484;2024-01-07T05:40:11;-2.40;99.90
4187;DHT22;2107;52.306;10.484;2024-01-07T05:42:38;-2.40;99.90
4187;DHT22;2107;52.306;10.484;2024-01-07T05:45:06;-2.40;99.90
4187;DHT22;2107;52.306;10.484;2024-01-07T05:47:33;-2.40;99.90
4187;DHT22;2107;52.306;10.484;2024-01-07T05:50:00;-2.20;99.90
4187;DHT22;2107;52.306;10.484;2024-01-07T05:52:29;-2.40;99.90
4187;DHT22;2107;52.306;10.484;2024-01-07T05:54:56;-2.40;99.90
4187;DHT22;2107;52.306;10.484;2024-01-07T05:57:22;-2.40;99.90
4187;DHT22;2107;52.306;10.484;2024-01-07T05:59:49;-2.50;99.90
4187;DHT22;2107;52.306;10.484;2024-01-07T06:02:17;-2.60;99.90
4187;DHT22;2107;52.306;10.484;2024-01-07T06:04:44;-2.50;99.90
4187;DHT22;2107;52.306;10.484;2024-01-07T06:07:11;-2.60;99.90
4187;DHT22;2107;52.306;10.484;2024-01-07T06:09:39;-2.60;99.90
4187;DHT22;2107;52.306;10.484;2024-01-07T06:12:07;-2.60;99.90
4187;DHT22;2107;52.306;10.484;2024-01-07T06:14:33;-2.60;99.90
4187;DHT22;2107;52.306;10.484;2024-01-07T06:17:00;-2.60;99.90
4187;DHT22;2107;52.306;10.484;2024-01-07T06:19:27;-2.70;99.90
4187;DHT22;2107;52.306;10.484;2024-01-07T06:21:54;-2.70;99.90
4187;DHT22;2107;52.306;10.484;2024-01-07T06:24:22;-2.70;99.90
4187;DHT22;2107;52.306;10.484;2024-01-07T06:26:50;-2.60;99.90
4187;DHT22;2107;52.306;10.484;2024-01-07T06:29:17;-2.70;99.90
4187;DHT22;2107;52.306;10.484;2024-01-07T06:31:44;-2.80;99.90
4187;DHT22;2107;52.306;10.484;2024-01-07T06:34:12;-2.80;99.90
4187;DHT22;2107;52.306;10.484;2024-01-07T06:36:39;-2.90;99.90
4187;DHT22;2107;52.306;10.484;2024-01-07T06:39:07;-2.90;99.90
4187;DHT22;2107;52.306;10.484;2024-01-07T06:41:34;-2.80;99.90
4187;DHT22;2107;52.306;10.484;2024-01-07T06:44:02;-2.80;99.90
4187;DHT22;2107;52.306;10.484;2024-01-07T06:46:29;-2.80;99.90
4187;DHT22;2107;52.306;10.484;2024-01-07T06:48:56;-2.80;99.90
4187;DHT22;2107;52.306;10.484;2024-01-07T06:51:24;-2.80;99.90
4187;DHT22;2107;52.306;10.484;2024-01-07T06:53:51;-2.80;99.90
4187;DHT22;2107;52.306;10.484;2024-01-07T06:56:18;-2.80;99.90
4187;DHT22;2107;52.306;10.484;2024-01-07T06:58:45;-2.70;99.90
4187;DHT22;2107;52.306;10.484;2024-01-07T07:01:13;-2.70;99.90
4187;DHT22;2107;52.306;10.484;2024-01-07T07:03:44;-2.80;99.90
4187;DHT22;2107;52.306;10.484;2024-01-07T07:06:11;-2.70;99.90
4187;DHT22;2107;52.306;10.484;2024-01-07T07:08:38;-2.50;99.90
4187;DHT22;2107;52.306;10.484;2024-01-07T07:11:05;-2.50;99.90
4187;DHT22;2107;52.306;10.484;2024-01-07T07:13:32;-2.50;99.90
4187;DHT22;2107;52.306;10.484;2024-01-07T07:15:59;-2.50;99.90
4187;DHT22;2107;52.306;10.484;2024-01-07T07:18:27;-2.50;99.90
4187;DHT22;2107;52.306;10.484;2024-01-07T07:20:54;-2.50;99.90
4187;DHT22;2107;52.306;10.484;2024-01-07T07:23:21;-2.50;99.90
4187;DHT22;2107;52.306;10.484;2024-01-07T07:25:48;-2.50;99.90
4187;DHT22;2107;52.306;10.484;2024-01-07T07:28:15;-2.40;99.90
4187;DHT22;2107;52.306;10.484;2024-01-07T07:30:43;-2.40;99.90
4187;DHT22;2107;52.306;10.484;2024-01-07T07:33:10;-2.40;99.90
4187;DHT22;2107;52.306;10.484;2024-01-07T07:35:38;-2.40;99.90
4187;DHT22;2107;52.306;10.484;2024-01-07T07:38:07;-2.40;99.90
4187;DHT22;2107;52.306;10.484;2024-01-07T07:40:34;-2.30;99.90
4187;DHT22;2107;52.306;10.484;2024-01-07T07:43:01;-2.30;99.90
4187;DHT22;2107;52.306;10.484;2024-01-07T07:45:28;-2.30;99.90
4187;DHT22;2107;52.306;10.484;2024-01-07T07:47:55;-2.30;99.90
4187;DHT22;2107;52.306;10.484;2024-01-07T07:50:22;-2.30;99.90
4187;DHT22;2107;52.306;10.484;2024-01-07T07:52:51;-2.20;99.90
4187;DHT22;2107;52.306;10.484;2024-01-07T07:55:19;-2.20;99.90
4187;DHT22;2107;52.306;10.484;2024-01-07T07:57:46;-2.20;99.90
4187;DHT22;2107;52.306;10.484;2024-01-07T08:00:14;-2.20;99.90
4187;DHT22;2107;52.306;10.484;2024-01-07T08:02:41;-2.20;99.90
4187;DHT22;2107;52.306;10.484;2024-01-07T08:05:08;-2.10;99.90
4187;DHT22;2107;52.306;10.484;2024-01-07T08:07:35;-2.10;99.90
4187;DHT22;2107;52.306;10.484;2024-01-07T08:10:04;-2.10;99.90
4187;DHT22;2107;52.306;10.484;2024-01-07T08:12:31;-2.10;99.90
4187;DHT22;2107;52.306;10.484;2024-01-07T08:14:58;-2.10;99.90
4187;DHT22;2107;52.306;10.484;2024-01-07T08:17:25;-2.10;99.90
4187;DHT22;2107;52.306;10.484;2024-01-07T08:19:52;-2.10;99.90
4187;DHT22;2107;52.306;10.484;2024-01-07T08:22:19;-2.00;99.90
4187;DHT22;2107;52.306;10.484;2024-01-07T08:24:46;-2.00;99.90
4187;DHT22;2107;52.306;10.484;2024-01-07T08:27:14;-2.00;99.90
4187;DHT22;2107;52.306;10.484;2024-01-07T08:29:42;-1.90;99.90
4187;DHT22;2107;52.306;10.484;2024-01-07T08:32:09;-1.90;99.90
4187;DHT22;2107;52.306;10.484;2024-01-07T08:34:38;-1.80;99.90
4187;DHT22;2107;52.306;10.484;2024-01-07T08:37:05;-1.90;99.90
4187;DHT22;2107;52.306;10.484;2024-01-07T08:39:32;-1.80;99.90
4187;DHT22;2107;52.306;10.484;2024-01-07T08:41:59;-1.80;99.90
4187;DHT22;2107;52.306;10.484;2024-01-07T08:44:27;-1.80;99.90
4187;DHT22;2107;52.306;10.484;2024-01-07T08:46:54;-1.90;99.90
4187;DHT22;2107;52.306;10.484;2024-01-07T08:49:21;-1.80;99.90
4187;DHT22;2107;52.306;10.484;2024-01-07T08:51:48;-1.80;99.90
4187;DHT22;2107;52.306;10.484;2024-01-07T08:54:14;-1.70;99.90
4187;DHT22;2107;52.306;10.484;2024-01-07T08:56:41;-1.70;99.90
4187;DHT22;2107;52.306;10.484;2024-01-07T08:59:09;-1.70;99.90
4187;DHT22;2107;52.306;10.484;2024-01-07T09:01:37;-1.70;99.90
4187;DHT22;2107;52.306;10.484;2024-01-07T09:04:04;-1.60;99.90
4187;DHT22;2107;52.306;10.484;2024-01-07T09:06:31;-1.60;99.90
4187;DHT22;2107;52.306;10.484;2024-01-07T09:08:58;-1.60;99.90
4187;DHT22;2107;52.306;10.484;2024-01-07T09:11:25;-1.60;99.90
4187;DHT22;2107;52.306;10.484;2024-01-07T09:13:52;-1.60;99.90
4187;DHT22;2107;52.306;10.484;2024-01-07T09:16:19;-1.60;99.90
4187;DHT22;2107;52.306;10.484;2024-01-07T09:18:47;-1.40;99.90
4187;DHT22;2107;52.306;10.484;2024-01-07T09:21:14;-1.40;99.90
4187;DHT22;2107;52.306;10.484;2024-01-07T09:23:41;-1.40;99.90
4187;DHT22;2107;52.306;10.484;2024-01-07T09:26:08;-1.30;99.90
4187;DHT22;2107;52.306;10.484;2024-01-07T09:28:36;-1.30;99.90
4187;DHT22;2107;52.306;10.484;2024-01-07T09:31:03;-1.40;99.90
4187;DHT22;2107;52.306;10.484;2024-01-07T09:33:32;-1.30;99.90
4187;DHT22;2107;52.306;10.484;2024-01-07T09:36:00;-1.40;99.90
4187;DHT22;2107;52.306;10.484;2024-01-07T09:38:27;-1.30;99.90
4187;DHT22;2107;52.306;10.484;2024-01-07T09:40:54;-1.30;99.90
4187;DHT22;2107;52.306;10.484;2024-01-07T09:43:21;-1.30;99.90
4187;DHT22;2107;52.306;10.484;2024-01-07T09:45:50;-1.30;99.90
4187;DHT22;2107;52.306;10.484;2024-01-07T09:48:18;-1.40;99.90
4187;DHT22;2107;52.306;10.484;2024-01-07T09:50:45;-1.30;99.90
4187;DHT22;2107;52.306;10.484;2024-01-07T09:53:15;-1.20;99.90
4187;DHT22;2107;52.306;10.484;2024-01-07T09:55:51;-1.30;99.90
4187;DHT22;2107;52.306;10.484;2024-01-07T09:58:19;-1.20;99.90
4187;DHT22;2107;52.306;10.484;2024-01-07T10:00:47;-1.20;99.90
4187;DHT22;2107;52.306;10.484;2024-01-07T10:03:14;-1.10;99.90
4187;DHT22;2107;52.306;10.484;2024-01-07T10:05:41;-1.10;99.90
4187;DHT22;2107;52.306;10.484;2024-01-07T10:08:09;-1.00;99.90
4187;DHT22;2107;52.306;10.484;2024-01-07T10:10:37;-1.10;99.90
4187;DHT22;2107;52.306;10.484;2024-01-07T10:13:06;-1.20;99.90
4187;DHT22;2107;52.306;10.484;2024-01-07T10:15:34;-1.20;99.90
4187;DHT22;2107;52.306;10.484;2024-01-07T10:18:04;-1.10;99.90
4187;DHT22;2107;52.306;10.484;2024-01-07T10:20:32;-1.00;99.90
4187;DHT22;2107;52.306;10.484;2024-01-07T10:23:00;-1.00;99.90
4187;DHT22;2107;52.306;10.484;2024-01-07T10:25:27;-0.90;99.90
4187;DHT22;2107;52.306;10.484;2024-01-07T10:27:59;-0.80;99.90
4187;DHT22;2107;52.306;10.484;2024-01-07T10:30:26;-0.90;99.90
4187;DHT22;2107;52.306;10.484;2024-01-07T10:32:56;-0.80;99.90
4187;DHT22;2107;52.306;10.484;2024-01-07T10:35:28;-0.90;99.90
4187;DHT22;2107;52.306;10.484;2024-01-07T10:37:55;-0.90;99.90
4187;DHT22;2107;52.306;10.484;2024-01-07T10:40:23;-0.90;99.90
4187;DHT22;2107;52.306;10.484;2024-01-07T10:42:52;-0.80;99.90
4187;DHT22;2107;52.306;10.484;2024-01-07T10:45:22;-0.70;99.90
4187;DHT22;2107;52.306;10.484;2024-01-07T10:47:54;-0.80;99.90
4187;DHT22;2107;52.306;10.484;2024-01-07T10:50:22;-0.80;99.90
4187;DHT22;2107;52.306;10.484;2024-01-07T10:52:50;-0.80;99.90
4187;DHT22;2107;52.306;10.484;2024-01-07T10:55:18;-0.70;99.90
4187;DHT22;2107;52.306;10.484;2024-01-07T10:57:47;-0.60;99.90
4187;DHT22;2107;52.306;10.484;2024-01-07T11:00:16;-0.50;99.90
4187;DHT22;2107;52.306;10.484;2024-01-07T11:02:55;-0.30;99.90
4187;DHT22;2107;52.306;10.484;2024-01-07T11:05:29;-0.20;99.90
4187;DHT22;2107;52.306;10.484;2024-01-07T11:08:01;-0.10;99.90
4187;DHT22;2107;52.306;10.484;2024-01-07T11:10:37;-0.10;99.90
4187;DHT22;2107;52.306;10.484;2024-01-07T11:13:05;-0.20;99.90
4187;DHT22;2107;52.306;10.484;2024-01-07T11:15:51;-0.30;99.90
4187;DHT22;2107;52.306;10.484;2024-01-07T11:18:20;-0.30;99.90
4187;DHT22;2107;52.306;10.484;2024-01-07T11:20:47;-0.30;99.90
4187;DHT22;2107;52.306;10.484;2024-01-07T11:23:26;-0.20;99.90
4187;DHT22;2107;52.306;10.484;2024-01-07T11:25:56;-0.20;99.90
4187;DHT22;2107;52.306;10.484;2024-01-07T11:28:45;-0.30;99.90
4187;DHT22;2107;52.306;10.484;2024-01-07T11:31:12;-0.10;99.90
4187;DHT22;2107;52.306;10.484;2024-01-07T11:33:42;-0.20;99.90
4187;DHT22;2107;52.306;10.484;2024-01-07T11:36:11;-0.10;99.90
4187;DHT22;2107;52.306;10.484;2024-01-07T11:38:42;-0.10;99.90
4187;DHT22;2107;52.306;10.484;2024-01-07T11:41:12;-0.20;99.90
4187;DHT22;2107;52.306;10.484;2024-01-07T11:43:52;-0.20;99.90
4187;DHT22;2107;52.306;10.484;2024-01-07T11:46:21;-0.20;99.90
4187;DHT22;2107;52.306;10.484;2024-01-07T11:48:50;-0.30;99.90
4187;DHT22;2107;52.306;10.484;2024-01-07T11:51:17;-0.20;99.90
4187;DHT22;2107;52.306;10.484;2024-01-07T11:53:46;-0.20;99.90
4187;DHT22;2107;52.306;10.484;2024-01-07T11:56:13;-0.30;99.90
4187;DHT22;2107;52.306;10.484;2024-01-07T11:58:40;-0.40;99.90
4187;DHT22;2107;52.306;10.484;2024-01-07T12:01:07;-0.40;99.90
4187;DHT22;2107;52.306;10.484;2024-01-07T12:03:34;-0.50;99.90
4187;DHT22;2107;52.306;10.484;2024-01-07T12:06:03;-0.50;99.90
4187;DHT22;2107;52.306;10.484;2024-01-07T12:08:30;-0.40;99.90
4187;DHT22;2107;52.306;10.484;2024-01-07T12:10:57;-0.40;99.90
4187;DHT22;2107;52.306;10.484;2024-01-07T12:13:24;-0.30;99.90
4187;DHT22;2107;52.306;10.484;2024-01-07T12:15:51;-0.40;99.90
4187;DHT22;2107;52.306;10.484;2024-01-07T12:18:20;-0.30;99.90
4187;DHT22;2107;52.306;10.484;2024-01-07T12:20:55;-0.20;99.90
4187;DHT22;2107;52.306;10.484;2024-01-07T12:23:24;-0.30;99.90
4187;DHT22;2107;52.306;10.484;2024-01-07T12:25:51;-0.40;99.90
4187;DHT22;2107;52.306;10.484;2024-01-07T12:28:18;-0.40;99.90
4187;DHT22;2107;52.306;10.484;2024-01-07T12:30:45;-0.40;99.90
4187;DHT22;2107;52.306;10.484;2024-01-07T12:33:16;-0.30;99.90
4187;DHT22;2107;52.306;10.484;2024-01-07T12:35:45;-0.40;99.90
4187;DHT22;2107;52.306;10.484;2024-01-07T12:38:12;-0.30;99.90
4187;DHT22;2107;52.306;10.484;2024-01-07T12:40:40;-0.40;99.90
4187;DHT22;2107;52.306;10.484;2024-01-07T12:43:07;-0.50;99.90
4187;DHT22;2107;52.306;10.484;2024-01-07T12:45:35;-0.40;99.90
4187;DHT22;2107;52.306;10.484;2024-01-07T12:48:02;-0.40;99.90
4187;DHT22;2107;52.306;10.484;2024-01-07T12:50:29;-0.20;99.90
4187;DHT22;2107;52.306;10.484;2024-01-07T12:52:57;-0.30;99.90
4187;DHT22;2107;52.306;10.484;2024-01-07T12:55:24;-0.30;99.90
4187;DHT22;2107;52.306;10.484;2024-01-07T12:57:53;-0.20;99.90
4187;DHT22;2107;52.306;10.484;2024-01-07T13:00:21;-0.30;99.90
4187;DHT22;2107;52.306;10.484;2024-01-07T13:02:48;-0.30;99.90
4187;DHT22;2107;52.306;10.484;2024-01-07T13:05:15;-0.30;99.90
4187;DHT22;2107;52.306;10.484;2024-01-07T13:07:42;-0.20;99.90
4187;DHT22;2107;52.306;10.484;2024-01-07T13:10:09;-0.20;99.90
4187;DHT22;2107;52.306;10.484;2024-01-07T13:12:36;-0.10;99.90
4187;DHT22;2107;52.306;10.484;2024-01-07T13:15:05;-0.10;99.90
4187;DHT22;2107;52.306;10.484;2024-01-07T13:17:32;-0.10;99.90
4187;DHT22;2107;52.306;10.484;2024-01-07T13:19:59;0.10;99.90
4187;DHT22;2107;52.306;10.484;2024-01-07T13:22:26;0.00;99.90
4187;DHT22;2107;52.306;10.484;2024-01-07T13:24:53;0.10;99.90
4187;DHT22;2107;52.306;10.484;2024-01-07T13:27:20;0.10;99.90
4187;DHT22;2107;52.306;10.484;2024-01-07T13:29:49;0.00;99.90
4187;DHT22;2107;52.306;10.484;2024-01-07T13:32:18;-0.10;99.90
4187;DHT22;2107;52.306;10.484;2024-01-07T13:34:45;-0.20;99.90
4187;DHT22;2107;52.306;10.484;2024-01-07T13:37:12;-0.20;99.90
4187;DHT22;2107;52.306;10.484;2024-01-07T13:39:39;0.00;99.90
4187;DHT22;2107;52.306;10.484;2024-01-07T13:42:06;0.10;99.90
4187;DHT22;2107;52.306;10.484;2024-01-07T13:44:33;0.00;99.90
4187;DHT22;2107;52.306;10.484;2024-01-07T13:47:01;0.20;99.90
4187;DHT22;2107;52.306;10.484;2024-01-07T13:49:29;0.30;99.90
4187;DHT22;2107;52.306;10.484;2024-01-07T13:51:56;0.40;99.90
4187;DHT22;2107;52.306;10.484;2024-01-07T13:54:23;0.30;99.90
4187;DHT22;2107;52.306;10.484;2024-01-07T13:56:50;0.30;99.90
4187;DHT22;2107;52.306;10.484;2024-01-07T13:59:16;0.20;99.90
4187;DHT22;2107;52.306;10.484;2024-01-07T14:01:44;0.20;99.90
4187;DHT22;2107;52.306;10.484;2024-01-07T14:04:11;0.10;99.90
4187;DHT22;2107;52.306;10.484;2024-01-07T14:06:42;0.00;99.90
4187;DHT22;2107;52.306;10.484;2024-01-07T14:09:09;0.00;99.90
4187;DHT22;2107;52.306;10.484;2024-01-07T14:11:36;-0.10;99.90
4187;DHT22;2107;52.306;10.484;2024-01-07T14:14:03;-0.10;99.90
4187;DHT22;2107;52.306;10.484;2024-01-07T14:16:30;-0.10;99.90
4187;DHT22;2107;52.306;10.484;2024-01-07T14:18:57;-0.20;99.90
4187;DHT22;2107;52.306;10.484;2024-01-07T14:21:24;-0.20;99.90
4187;DHT22;2107;52.306;10.484;2024-01-07T14:23:53;-0.30;99.90
4187;DHT22;2107;52.306;10.484;2024-01-07T14:26:19;-0.40;99.90
4187;DHT22;2107;52.306;10.484;2024-01-07T14:28:49;-0.30;99.90
4187;DHT22;2107;52.306;10.484;2024-01-07T14:31:16;-0.40;99.90
4187;DHT22;2107;52.306;10.484;2024-01-07T14:33:43;-0.40;99.90
4187;DHT22;2107;52.306;10.484;2024-01-07T14:36:10;-0.40;99.90
4187;DHT22;2107;52.306;10.484;2024-01-07T14:38:42;-0.50;99.90
4187;DHT22;2107;52.306;10.484;2024-01-07T14:41:11;-0.60;99.90
4187;DHT22;2107;52.306;10.484;2024-01-07T14:43:38;-0.60;99.90
4187;DHT22;2107;52.306;10.484;2024-01-07T14:46:06;-0.50;99.90
4187;DHT22;2107;52.306;10.484;2024-01-07T14:48:33;-0.50;99.90
4187;DHT22;2107;52.306;10.484;2024-01-07T14:51:00;-0.60;99.90
4187;DHT22;2107;52.306;10.484;2024-01-07T14:53:27;-0.70;99.90
4187;DHT22;2107;52.306;10.484;2024-01-07T14:55:55;-0.70;99.90
4187;DHT22;2107;52.306;10.484;2024-01-07T14:58:24;-0.80;99.90
4187;DHT22;2107;52.306;10.484;2024-01-07T15:00:51;-0.80;99.90
4187;DHT22;2107;52.306;10.484;2024-01-07T15:03:19;-0.80;99.90
4187;DHT22;2107;52.306;10.484;2024-01-07T15:05:46;-0.90;99.90
4187;DHT22;2107;52.306;10.484;2024-01-07T15:08:13;-0.90;99.90
4187;DHT22;2107;52.306;10.484;2024-01-07T15:10:40;-0.90;99.90
4187;DHT22;2107;52.306;10.484;2024-01-07T15:13:07;-1.00;99.90
4187;DHT22;2107;52.306;10.484;2024-01-07T15:15:36;-1.00;99.90
4187;DHT22;2107;52.306;10.484;2024-01-07T15:18:03;-1.00;99.90
4187;DHT22;2107;52.306;10.484;2024-01-07T15:20:30;-1.00;99.90
4187;DHT22;2107;52.306;10.484;2024-01-07T15:22:58;-1.00;99.90
4187;DHT22;2107;52.306;10.484;2024-01-07T15:25:25;-1.10;99.90
4187;DHT22;2107;52.306;10.484;2024-01-07T15:27:55;-1.20;99.90
4187;DHT22;2107;52.306;10.484;2024-01-07T15:30:22;-1.10;99.90
4187;DHT22;2107;52.306;10.484;2024-01-07T15:32:51;-1.10;99.90
4187;DHT22;2107;52.306;10.484;2024-01-07T15:35:27;-1.10;99.90
4187;DHT22;2107;52.306;10.484;2024-01-07T15:37:58;-1.10;99.90
4187;DHT22;2107;52.306;10.484;2024-01-07T15:40:39;-1.10;99.90
4187;DHT22;2107;52.306;10.484;2024-01-07T15:43:16;-1.10;99.90
4187;DHT22;2107;52.306;10.484;2024-01-07T15:45:48;-1.10;99.90
4187;DHT22;2107;52.306;10.484;2024-01-07T15:48:28;-1.10;99.90
4187;DHT22;2107;52.306;10.484;2024-01-07T15:51:02;-1.20;99.90